Terminal Aerodrome Forecast
Issued by NWS

Home | Current Version | Previous Version | Text Only | Print | Product List | Glossary On
Versions: 1 2 3 4 5 6 7 8 9 10 11 12 13 14
000
FTUS45 KABQ 281739
TAFROW
TAF
KROW 281739Z 2818/2918 16009KT P6SM SCT250
     FM281900 23015G25KT P6SM SCT100
     FM282000 24025G35KT P6SM BKN100
     FM290200 34024G31KT P6SM VCSH OVC070
     FM290700 02015KT P6SM VCSH BKN070
     FM291300 20010KT P6SM OVC100=

USA.gov is the U.S. government's official web portal to all federal, state and local government web resources and services.